Williams Mountain, West Virginia
Current Conditions -  °F | °C
As of 6:25 AM on Tuesday 21 Oct 2014 (Local Time) from KCRW Reporting Station
Broken Clouds Broken Clouds  
Wind Chill: 52°   Ceiling: 6000
Heat Index: 52°   Visibility: 8mi
Dew Point: 50°   Wind: 0mph
Humidity: 93%   Direction: NA
Pressure: 29.9"   Gusts: NA
Location:  38.0789°N, 81.6756°W
Report Text: KCRW 211025Z 00000KT 8SM SCT028 BKN060 11/10 A2990 RMK AO2 T01110100
Loading
Personal Weather Stations






























Interactive Weather Map
Tropical Storm Tracking
New forecast layout! Learn more

10-Day Weather Forecast

Advertisements
Track Severe Weather on mobile